Aérodrome :
LOGIN :

S'inscrire | Disclaimer

   EN    FR    IT 

 










Légende :    VFR   VFR Marginal   IFR   IFR Intensif   IFR Très Intensif
Visi : 
Plafond : 
>= 8 km
>= 3000ft
5 à 8 km
1000 à 3000 ft
1500m à 5 km
500 à 1000 ft
800 à 1500m
200 à 500 ft
< 800m
< 200 ft
Symboles :   Orages  Brouillard  Fortes neiges  Fortes précipitations  Vent > 20 kt
SIGMETs :   Divers  Orages  Givrage  Turbulence  Onde Orograph.  Cendres Volcan.






- Altitude de l'aérodrome : 325 ft
- Code IATA : BES


LFRB - Brest

DERNIER METAR :
  • 282200Z AUTO 08009KT CAVOK 15/10 Q1025 NOSIG

METARs EXPIRÉS :
  • 282130Z AUTO 07010KT CAVOK 15/10 Q1025 NOSIG
  • 282100Z AUTO 05008KT CAVOK 16/10 Q1025 NOSIG
  • 282030Z AUTO 05008KT CAVOK 16/10 Q1025 NOSIG
  • 282000Z AUTO 05010KT CAVOK 17/11 Q1025 NOSIG
  • 281930Z AUTO 05011KT CAVOK 18/11 Q1025 NOSIG

TAF TAF LFRB
Valide du 28 à 18h jusqu'au 30 à 00h UTC


281700Z 2818/2924 04012KT CAVOK
BECMG 2821/2824 08005KT
TEMPO 2915/2918 06015KT
ATIS : +33 2 98 32 02 71



MET'MAP, la Météo Aéronautique d'un coup d'oeil ! - Copyright ORBIFLY Décembre 2007 - Disclaimer

ORBIFLY MET'MAP TEAM :

Programmation & Développement : Alexandra Zaïnal
Sur une idée originale de : Baudouin d'Aumeries
Assistance à la programmation : Marc-Olivier Méhu
Soutien technique & logistique : Manuel Goepfert

Contact : metmap@orbifly.com




SOURCES & CREDITS :

   NOAA